Time;durP1;ratioP1;P1;durP2;ratioP2;P2;SDS_P1;SDS_P2;PMS_P1;PMS_P2;Temp;Humidity;BMP_temperature;BMP_pressure;BME280_temperature;BME280_humidity;BME280_pressure;Samples;Min_cycle;Max_cycle;Signal;HPM_P1;HPM_P2
2022/12/31 00:01:24;;;;;;;3.80;0.77;;;11.80;99.90;;;;;;6185995;23;20181;-90
2022/12/31 00:03:53;;;;;;;0.70;0.60;;;11.80;99.90;;;;;;6186623;23;20581;-91
2022/12/31 00:06:23;;;;;;;4.50;1.40;;;11.80;99.90;;;;;;6185658;23;20155;-87
2022/12/31 00:08:50;;;;;;;25.47;2.13;;;11.80;99.90;;;;;;6212321;23;20149;-86
2022/12/31 00:11:16;;;;;;;6.87;2.70;;;11.80;99.90;;;;;;6185349;23;20182;-86
2022/12/31 00:13:43;;;;;;;2.00;0.60;;;11.80;99.90;;;;;;6185896;23;20609;-87
2022/12/31 00:16:14;;;;;;;1.67;0.60;;;11.80;99.90;;;;;;6212319;23;20590;-86
2022/12/31 00:18:43;;;;;;;3.37;2.10;;;11.80;99.90;;;;;;6211765;23;20149;-86
2022/12/31 00:21:10;;;;;;;8.57;2.97;;;11.60;99.90;;;;;;6185528;23;20190;-86
2022/12/31 00:23:36;;;;;;;2.20;0.40;;;11.50;99.90;;;;;;6185187;23;20166;-86
2022/12/31 00:26:04;;;;;;;5.97;1.40;;;11.60;99.90;;;;;;6185425;23;20177;-91
2022/12/31 00:28:30;;;;;;;1.30;1.00;;;11.60;99.90;;;;;;6211912;23;20522;-89
2022/12/31 00:30:58;;;;;;;20.23;2.73;;;11.60;99.90;;;;;;6211984;23;20239;-86
2022/12/31 00:33:24;;;;;;;1.70;1.60;;;11.60;99.90;;;;;;6185516;23;20220;-87
2022/12/31 00:35:50;;;;;;;2.33;2.03;;;11.60;99.90;;;;;;6160583;23;20664;-88
2022/12/31 00:38:15;;;;;;;3.47;1.10;;;11.70;99.90;;;;;;6185629;23;20497;-88
2022/12/31 00:40:41;;;;;;;10.37;1.40;;;11.70;99.90;;;;;;6185622;23;20743;-87
2022/12/31 00:43:07;;;;;;;4.03;2.00;;;11.70;99.90;;;;;;6185782;23;20162;-87
2022/12/31 00:45:33;;;;;;;2.10;1.93;;;11.60;99.90;;;;;;6211925;23;20624;-87
2022/12/31 00:47:58;;;;;;;2.03;1.50;;;11.60;99.90;;;;;;6210804;23;20590;-90
2022/12/31 00:50:24;;;;;;;7.83;1.03;;;11.60;99.90;;;;;;6184159;23;20691;-87
2022/12/31 00:52:50;;;;;;;7.90;1.53;;;11.60;99.90;;;;;;6210921;23;20162;-89
2022/12/31 00:55:16;;;;;;;16.37;3.47;;;11.50;99.90;;;;;;6185349;23;20242;-86
2022/12/31 00:57:41;;;;;;;4.27;0.97;;;11.50;99.90;;;;;;6185338;23;20159;-90
2022/12/31 01:00:08;;;;;;;7.17;1.43;;;11.50;99.90;;;;;;6185338;23;20158;-87
2022/12/31 01:02:34;;;;;;;5.30;1.30;;;11.50;99.90;;;;;;6185526;23;20165;-86
2022/12/31 01:04:59;;;;;;;5.73;1.40;;;11.50;99.90;;;;;;6211623;23;20158;-87
2022/12/31 01:07:25;;;;;;;1.23;0.80;;;11.50;99.90;;;;;;6211359;23;20162;-89
2022/12/31 01:09:52;;;;;;;11.67;2.23;;;11.50;99.90;;;;;;6211164;23;20154;-87
2022/12/31 01:12:18;;;;;;;8.07;2.10;;;11.50;99.90;;;;;;6160352;23;20202;-87
2022/12/31 01:14:44;;;;;;;3.20;1.53;;;11.50;99.90;;;;;;6185473;23;20481;-86
2022/12/31 01:17:09;;;;;;;11.80;1.20;;;11.40;99.90;;;;;;6211266;23;20158;-87
2022/12/31 01:19:35;;;;;;;8.00;2.17;;;11.50;99.90;;;;;;6211396;23;20322;-86
2022/12/31 01:22:01;;;;;;;2.77;0.73;;;11.50;99.90;;;;;;6211495;23;20300;-86
2022/12/31 01:24:26;;;;;;;3.00;1.13;;;11.50;99.90;;;;;;6160558;23;20723;-90
2022/12/31 01:26:56;;;;;;;5.33;1.43;;;11.50;99.90;;;;;;6184876;23;20245;-86
2022/12/31 01:29:22;;;;;;;5.70;2.00;;;11.50;99.90;;;;;;6160740;23;20162;-87
2022/12/31 01:31:48;;;;;;;5.37;0.97;;;11.40;99.90;;;;;;6159855;23;20221;-89
2022/12/31 01:34:13;;;;;;;5.93;1.40;;;11.50;99.90;;;;;;6185075;23;20162;-88
2022/12/31 01:36:39;;;;;;;8.13;1.37;;;11.50;99.90;;;;;;6185339;23;20162;-86
2022/12/31 01:39:07;;;;;;;7.03;2.20;;;11.50;99.90;;;;;;6185029;23;20166;-90
2022/12/31 01:41:40;;;;;;;5.43;1.37;;;11.50;99.90;;;;;;6211534;23;20147;-88
2022/12/31 01:44:11;;;;;;;5.40;1.87;;;11.50;99.90;;;;;;6211490;23;20612;-90
2022/12/31 01:46:46;;;;;;;0.80;0.43;;;11.50;99.90;;;;;;6211790;23;20169;-87
2022/12/31 01:49:56;;;;;;;2.73;0.67;;;11.50;99.90;;;;;;6211553;23;20156;-87
2022/12/31 01:52:29;;;;;;;0.57;0.57;;;11.50;99.90;;;;;;6205342;23;20602;-89
2022/12/31 01:55:07;;;;;;;3.50;1.20;;;11.40;99.90;;;;;;6211649;23;20619;-86
2022/12/31 01:57:34;;;;;;;0.37;0.37;;;11.50;99.90;;;;;;6211307;23;20604;-87
2022/12/31 02:00:01;;;;;;;3.80;0.97;;;11.50;99.90;;;;;;6185037;23;20164;-87
2022/12/31 02:02:27;;;;;;;3.67;1.47;;;11.50;99.90;;;;;;6185360;23;20255;-87
2022/12/31 02:04:55;;;;;;;2.90;0.53;;;11.50;99.90;;;;;;6185449;23;20714;-87
2022/12/31 02:07:22;;;;;;;0.90;0.73;;;11.50;99.90;;;;;;6185002;23;20613;-88
2022/12/31 02:09:48;;;;;;;1.67;1.37;;;11.40;99.90;;;;;;6211344;23;20158;-91
2022/12/31 02:12:14;;;;;;;1.43;1.07;;;11.40;99.90;;;;;;6183181;23;20255;-87
2022/12/31 02:14:52;;;;;;;6.60;2.80;;;11.40;99.90;;;;;;6183373;23;20246;-86
2022/12/31 02:17:53;;;;;;;2.63;0.97;;;11.40;99.90;;;;;;6209959;23;20138;-90
2022/12/31 02:20:54;;;;;;;4.00;1.57;;;11.40;99.90;;;;;;6182804;23;20162;-89
2022/12/31 02:23:23;;;;;;;10.80;2.53;;;11.30;99.90;;;;;;6183846;23;20153;-90
2022/12/31 02:26:01;;;;;;;2.20;1.17;;;11.30;99.90;;;;;;6211614;23;20460;-87
2022/12/31 02:28:41;;;;;;;0.23;0.23;;;11.30;99.90;;;;;;6210906;23;20226;-86
2022/12/31 02:31:33;;;;;;;6.30;1.13;;;11.20;99.90;;;;;;6211763;23;20194;-88
2022/12/31 02:34:01;;;;;;;0.57;0.57;;;11.20;99.90;;;;;;6184681;23;20150;-87
2022/12/31 02:36:32;;;;;;;1.90;1.03;;;11.20;99.90;;;;;;6210784;23;20158;-87
2022/12/31 02:38:59;;;;;;;3.80;0.93;;;11.20;99.90;;;;;;6211032;23;20142;-86
2022/12/31 02:44:32;;;;;;;4.73;1.03;;;11.20;99.90;;;;;;6213059;23;20218;-90
2022/12/31 02:47:07;;;;;;;8.17;2.30;;;11.20;99.90;;;;;;6186419;23;20154;-87
2022/12/31 02:50:00;;;;;;;0.30;0.30;;;11.10;99.90;;;;;;6185161;23;20154;-88
2022/12/31 02:53:03;;;;;;;3.40;0.70;;;11.10;99.90;;;;;;6185005;23;20170;-88
2022/12/31 02:55:49;;;;;;;2.53;1.20;;;11.10;99.90;;;;;;6184846;23;20585;-87
2022/12/31 03:04:31;;;;;;;1.00;1.00;;;11.10;99.90;;;;;;6211899;23;20177;-85
2022/12/31 03:07:03;;;;;;;6.90;1.33;;;11.10;99.90;;;;;;6137191;23;20209;-87
2022/12/31 03:09:29;;;;;;;5.03;0.83;;;11.10;99.90;;;;;;6185093;23;20682;-90
2022/12/31 03:14:39;;;;;;;3.83;1.53;;;11.10;99.90;;;;;;6211421;23;20385;-92
2022/12/31 03:17:04;;;;;;;1.30;1.13;;;11.10;99.90;;;;;;6185496;23;20657;-86
2022/12/31 03:22:27;;;;;;;5.57;0.83;;;11.10;99.90;;;;;;6213391;23;20158;-89
2022/12/31 03:28:07;;;;;;;1.40;0.83;;;11.00;99.90;;;;;;6177128;23;20157;-87
2022/12/31 03:30:35;;;;;;;0.77;0.40;;;11.00;99.90;;;;;;6186190;23;20248;-87
2022/12/31 03:33:01;;;;;;;1.37;0.80;;;11.00;99.90;;;;;;6212738;23;20612;-91
2022/12/31 03:35:30;;;;;;;8.17;1.07;;;11.00;99.90;;;;;;6186846;23;20162;-87
2022/12/31 03:37:56;;;;;;;4.73;1.37;;;11.00;99.90;;;;;;6186638;23;20159;-86
2022/12/31 03:40:25;;;;;;;9.73;1.83;;;11.00;99.90;;;;;;6161222;23;20174;-88
2022/12/31 03:42:51;;;;;;;2.87;0.53;;;11.00;99.90;;;;;;6186237;23;20150;-89
2022/12/31 03:45:17;;;;;;;0.27;0.20;;;11.00;99.90;;;;;;6136755;23;20216;-86
2022/12/31 03:47:43;;;;;;;1.30;0.47;;;11.00;99.90;;;;;;6161453;23;20651;-89
2022/12/31 03:50:10;;;;;;;5.73;2.57;;;11.00;99.90;;;;;;6185686;23;20154;-88
2022/12/31 03:52:36;;;;;;;0.93;0.93;;;11.00;99.90;;;;;;6212520;23;20154;-86
2022/12/31 03:55:03;;;;;;;1.60;1.23;;;11.00;99.90;;;;;;6136987;23;20154;-86
2022/12/31 03:57:28;;;;;;;2.87;1.93;;;11.00;99.90;;;;;;6186282;23;20293;-87
2022/12/31 03:59:54;;;;;;;0.67;0.67;;;11.00;99.90;;;;;;6185861;23;20162;-86
2022/12/31 04:02:20;;;;;;;2.40;0.60;;;10.90;99.90;;;;;;6185744;23;20158;-91
2022/12/31 04:04:46;;;;;;;0.90;0.53;;;11.00;99.90;;;;;;6136840;23;20158;-91
2022/12/31 04:07:12;;;;;;;7.87;1.43;;;11.00;99.90;;;;;;6212375;23;20155;-90
2022/12/31 04:09:37;;;;;;;0.10;0.10;;;11.00;99.90;;;;;;6161864;23;20159;-88
2022/12/31 04:12:03;;;;;;;8.23;0.77;;;10.90;99.90;;;;;;6185514;23;20350;-87
2022/12/31 04:14:29;;;;;;;1.80;1.50;;;10.90;99.90;;;;;;6159286;23;20173;-90
2022/12/31 04:16:55;;;;;;;1.13;1.03;;;10.90;99.90;;;;;;6183813;23;20158;-86
2022/12/31 04:19:21;;;;;;;1.50;1.33;;;10.90;99.90;;;;;;6184007;23;20229;-90
2022/12/31 04:21:46;;;;;;;2.27;0.97;;;10.80;99.90;;;;;;6184254;23;20514;-88
2022/12/31 04:24:12;;;;;;;0.63;0.40;;;10.80;99.90;;;;;;6158935;23;20154;-86
2022/12/31 04:26:38;;;;;;;1.90;0.60;;;10.80;99.90;;;;;;6183928;23;20237;-87
2022/12/31 04:29:07;;;;;;;0.93;0.63;;;10.80;99.90;;;;;;6159509;23;20162;-88
2022/12/31 04:31:32;;;;;;;0.77;0.17;;;10.80;99.90;;;;;;6210030;23;20189;-88
2022/12/31 04:33:58;;;;;;;8.93;0.73;;;10.80;99.90;;;;;;6184112;23;20163;-92
2022/12/31 04:36:24;;;;;;;2.57;0.63;;;10.80;99.90;;;;;;6183783;23;20166;-89
2022/12/31 04:38:50;;;;;;;11.13;1.73;;;10.80;99.90;;;;;;6159576;23;20158;-87
2022/12/31 04:41:15;;;;;;;5.23;0.83;;;10.80;99.90;;;;;;6185514;23;20185;-90
2022/12/31 04:43:43;;;;;;;6.60;1.80;;;10.80;99.90;;;;;;6161225;23;20159;-86
2022/12/31 04:46:09;;;;;;;4.13;1.17;;;10.80;99.90;;;;;;6161157;23;20158;-87
2022/12/31 04:48:35;;;;;;;1.97;1.07;;;10.80;99.90;;;;;;6185239;23;20699;-88
2022/12/31 04:51:01;;;;;;;4.43;0.97;;;10.90;99.90;;;;;;6185352;23;20182;-87
2022/12/31 04:53:28;;;;;;;11.03;0.60;;;10.90;99.90;;;;;;6211654;23;20761;-91
2022/12/31 04:55:54;;;;;;;6.40;0.50;;;10.90;99.90;;;;;;6212173;23;20155;-86
2022/12/31 04:58:21;;;;;;;2.97;1.27;;;10.90;99.90;;;;;;6211785;23;20196;-87
2022/12/31 05:00:50;;;;;;;4.10;1.73;;;10.90;99.90;;;;;;6185235;23;20227;-87
2022/12/31 05:03:17;;;;;;;8.47;0.83;;;10.90;99.90;;;;;;6159949;23;20312;-90
2022/12/31 05:05:43;;;;;;;2.80;1.50;;;10.90;99.90;;;;;;6183780;23;20157;-86
2022/12/31 05:08:12;;;;;;;0.23;0.20;;;10.90;99.90;;;;;;6209855;23;20154;-91
2022/12/31 05:10:49;;;;;;;1.50;1.40;;;10.90;99.90;;;;;;6183559;23;20289;-91
2022/12/31 05:13:15;;;;;;;1.37;1.27;;;10.90;99.90;;;;;;6159143;23;20173;-89
2022/12/31 05:15:41;;;;;;;0.40;0.40;;;10.90;99.90;;;;;;6183632;23;20204;-87
2022/12/31 05:18:08;;;;;;;2.07;0.93;;;10.90;99.90;;;;;;6209886;23;20593;-88
2022/12/31 05:20:34;;;;;;;0.20;0.13;;;10.90;99.90;;;;;;6183303;23;20699;-90
2022/12/31 05:23:00;;;;;;;0.67;0.40;;;10.90;99.90;;;;;;6158823;23;20154;-90
2022/12/31 05:25:26;;;;;;;0.40;0.40;;;10.90;99.90;;;;;;6183443;23;20181;-88
2022/12/31 05:27:52;;;;;;;8.83;1.10;;;10.90;99.90;;;;;;6184230;23;20639;-89
2022/12/31 05:30:18;;;;;;;0.20;0.20;;;10.90;99.90;;;;;;6211472;23;20178;-89
2022/12/31 05:32:45;;;;;;;2.20;0.63;;;11.00;99.90;;;;;;6185273;23;20163;-87
2022/12/31 05:35:13;;;;;;;1.90;0.50;;;11.00;99.90;;;;;;6185617;23;20150;-88
2022/12/31 05:37:39;;;;;;;0.20;0.20;;;11.00;99.90;;;;;;6184820;23;20666;-86
2022/12/31 05:40:06;;;;;;;0.73;0.53;;;11.00;99.90;;;;;;6184773;23;20389;-86
2022/12/31 05:42:32;;;;;;;1.23;1.13;;;11.00;99.90;;;;;;6184387;23;20368;-89
2022/12/31 05:44:58;;;;;;;2.57;1.23;;;11.10;99.90;;;;;;6184315;23;20150;-90
2022/12/31 05:47:24;;;;;;;0.23;0.23;;;11.00;99.90;;;;;;6184239;23;20150;-87
2022/12/31 05:49:51;;;;;;;0.30;0.30;;;11.00;99.90;;;;;;6184772;23;20150;-87
2022/12/31 05:52:16;;;;;;;2.90;1.27;;;11.00;99.90;;;;;;6184681;23;20258;-87
2022/12/31 05:54:42;;;;;;;1.70;1.50;;;11.00;99.90;;;;;;6212189;23;20158;-87
2022/12/31 05:57:08;;;;;;;3.37;1.00;;;10.90;99.90;;;;;;6136602;23;20158;-87
2022/12/31 05:59:34;;;;;;;0.20;0.20;;;10.90;99.90;;;;;;6184860;23;20178;-87
2022/12/31 06:02:00;;;;;;;0.30;0.30;;;10.80;99.90;;;;;;6211721;23;20161;-87
2022/12/31 06:04:26;;;;;;;1.00;0.80;;;10.70;99.90;;;;;;6185675;23;20713;-87
2022/12/31 06:06:52;;;;;;;1.30;0.77;;;10.70;99.90;;;;;;6185790;23;20667;-87
2022/12/31 06:09:20;;;;;;;1.80;0.93;;;10.70;99.90;;;;;;6211646;23;20150;-86
2022/12/31 06:11:52;;;;;;;0.47;0.37;;;10.60;99.90;;;;;;6185605;23;20175;-88
2022/12/31 06:14:18;;;;;;;2.47;0.60;;;10.70;99.90;;;;;;6160705;23;20598;-90
2022/12/31 06:16:49;;;;;;;0.40;0.23;;;10.70;99.90;;;;;;6186291;23;20225;-89
2022/12/31 06:19:14;;;;;;;2.40;0.97;;;10.60;99.90;;;;;;6213481;23;20158;-86
2022/12/31 06:21:40;;;;;;;1.40;0.30;;;10.70;99.90;;;;;;6187482;23;20240;-86
2022/12/31 06:24:06;;;;;;;0.50;0.33;;;10.70;99.90;;;;;;6187065;23;20158;-86
2022/12/31 06:26:32;;;;;;;0.57;0.57;;;10.70;99.90;;;;;;6162028;23;20162;-88
2022/12/31 06:28:58;;;;;;;0.30;0.30;;;10.70;99.90;;;;;;6186978;23;20297;-87
2022/12/31 06:31:24;;;;;;;0.83;0.40;;;10.70;99.90;;;;;;6186780;23;20178;-86
2022/12/31 06:33:49;;;;;;;0.77;0.47;;;10.80;99.90;;;;;;6185337;23;20158;-88
2022/12/31 06:36:16;;;;;;;0.73;0.70;;;10.80;99.90;;;;;;6211836;23;20776;-87
2022/12/31 06:38:42;;;;;;;5.00;1.13;;;10.90;99.90;;;;;;6212128;23;20150;-87
2022/12/31 06:41:11;;;;;;;4.10;2.53;;;10.90;99.90;;;;;;6136798;23;20659;-89
2022/12/31 06:43:39;;;;;;;8.80;1.57;;;10.90;99.90;;;;;;6186927;23;20160;-87
2022/12/31 06:46:07;;;;;;;1.83;1.17;;;10.90;99.90;;;;;;6186145;23;20723;-89
2022/12/31 06:48:33;;;;;;;4.47;1.90;;;11.00;99.90;;;;;;6186547;23;20154;-86
2022/12/31 06:51:04;;;;;;;1.40;1.17;;;11.00;99.90;;;;;;6185613;23;20210;-87
2022/12/31 06:53:33;;;;;;;1.43;1.33;;;11.00;99.90;;;;;;6185459;23;20582;-87
2022/12/31 06:56:29;;;;;;;2.20;1.93;;;11.00;99.90;;;;;;6184576;23;20205;-89
2022/12/31 06:58:55;;;;;;;2.63;1.13;;;11.00;99.90;;;;;;6166999;23;20644;-87
2022/12/31 07:01:33;;;;;;;2.10;1.57;;;11.00;99.90;;;;;;6186373;23;20166;-88
2022/12/31 07:04:05;;;;;;;0.60;0.60;;;10.90;99.90;;;;;;6212704;23;20150;-86
2022/12/31 07:06:50;;;;;;;1.90;1.80;;;10.90;99.90;;;;;;6187118;23;20164;-86
2022/12/31 07:09:39;;;;;;;0.60;0.60;;;10.80;99.90;;;;;;6213292;23;20142;-86
2022/12/31 07:12:33;;;;;;;1.20;1.10;;;10.80;99.90;;;;;;6194319;23;20190;-86
2022/12/31 07:15:13;;;;;;;4.43;1.63;;;10.80;99.90;;;;;;6186202;23;20612;-87
2022/12/31 07:17:57;;;;;;;3.83;1.73;;;10.80;99.90;;;;;;6186310;23;20222;-88
2022/12/31 07:20:22;;;;;;;1.70;1.37;;;10.80;99.90;;;;;;6212545;23;20617;-86
2022/12/31 07:22:49;;;;;;;1.23;1.13;;;10.80;99.90;;;;;;6160606;23;20158;-88
2022/12/31 07:25:16;;;;;;;3.60;0.73;;;10.70;99.90;;;;;;6186820;23;20162;-89
2022/12/31 07:28:08;;;;;;;4.73;1.37;;;10.70;99.90;;;;;;6186192;23;20154;-85
2022/12/31 07:31:07;;;;;;;1.00;0.87;;;10.70;99.90;;;;;;6166037;23;20214;-86
2022/12/31 07:33:42;;;;;;;1.67;1.57;;;10.70;99.90;;;;;;6185712;23;20228;-85
2022/12/31 07:36:23;;;;;;;0.87;0.67;;;10.80;99.90;;;;;;6185739;23;20153;-86
2022/12/31 07:39:10;;;;;;;6.00;4.57;;;10.70;99.90;;;;;;6212158;23;20280;-85
2022/12/31 07:41:52;;;;;;;1.73;1.30;;;10.70;99.90;;;;;;6186093;23;20161;-86
2022/12/31 07:44:40;;;;;;;2.17;1.77;;;10.70;99.90;;;;;;6186286;23;20142;-87
2022/12/31 07:47:21;;;;;;;3.13;2.27;;;10.70;99.90;;;;;;6186013;23;20174;-91
2022/12/31 07:49:47;;;;;;;1.70;1.57;;;10.70;99.90;;;;;;6185841;23;20146;-86
2022/12/31 07:52:14;;;;;;;8.33;5.97;;;10.70;99.90;;;;;;6160961;23;20727;-85
2022/12/31 07:54:39;;;;;;;7.97;4.63;;;10.70;99.90;;;;;;6185154;23;20253;-89
2022/12/31 07:57:05;;;;;;;5.23;3.13;;;10.70;99.90;;;;;;6185327;23;20777;-87
2022/12/31 08:00:00;;;;;;;4.13;2.93;;;10.70;99.90;;;;;;6136141;23;20158;-87
2022/12/31 08:03:03;;;;;;;4.83;2.77;;;10.70;99.90;;;;;;6185427;23;20165;-88
2022/12/31 08:05:32;;;;;;;1.60;1.50;;;10.70;99.90;;;;;;6185220;23;20158;-85
2022/12/31 08:08:22;;;;;;;4.13;2.80;;;10.80;99.90;;;;;;6211620;23;20172;-88
2022/12/31 08:11:06;;;;;;;6.53;5.30;;;10.80;99.90;;;;;;6184935;23;20180;-87
2022/12/31 08:13:32;;;;;;;5.23;4.67;;;10.80;99.90;;;;;;6185309;23;20169;-88
2022/12/31 08:15:59;;;;;;;5.77;4.97;;;10.80;99.90;;;;;;6184221;23;20213;-87
2022/12/31 08:18:25;;;;;;;5.33;3.67;;;10.80;99.90;;;;;;6183976;23;20186;-89
2022/12/31 08:20:54;;;;;;;5.97;3.80;;;10.90;99.90;;;;;;6160087;23;20158;-86
2022/12/31 08:23:44;;;;;;;3.77;2.73;;;10.90;99.90;;;;;;6211043;23;20174;-85
2022/12/31 08:26:09;;;;;;;8.63;2.27;;;10.90;99.90;;;;;;6211238;23;20174;-86
2022/12/31 08:29:03;;;;;;;3.00;2.30;;;10.90;99.90;;;;;;6210757;23;20158;-86
2022/12/31 08:32:14;;;;;;;2.87;2.53;;;10.90;99.90;;;;;;6184772;23;20178;-86
2022/12/31 08:35:01;;;;;;;3.03;2.70;;;11.00;99.90;;;;;;6205387;23;20164;-86
2022/12/31 08:37:41;;;;;;;1.87;1.67;;;11.00;99.90;;;;;;6184440;23;20185;-86
2022/12/31 08:40:32;;;;;;;1.37;1.27;;;11.00;99.90;;;;;;6210765;23;20236;-86
2022/12/31 08:43:23;;;;;;;2.07;1.87;;;11.00;99.90;;;;;;6210770;23;20667;-87
2022/12/31 08:45:52;;;;;;;4.13;3.27;;;11.10;99.90;;;;;;6184539;23;20229;-86
2022/12/31 08:48:33;;;;;;;1.80;1.67;;;11.20;99.90;;;;;;6185262;23;20160;-86
2022/12/31 08:50:59;;;;;;;2.33;2.13;;;11.30;99.90;;;;;;6211505;23;20232;-85
2022/12/31 08:53:25;;;;;;;1.87;1.07;;;11.30;99.90;;;;;;6211625;23;20292;-85
2022/12/31 08:56:06;;;;;;;2.10;2.00;;;11.50;99.90;;;;;;6159993;23;20153;-86
2022/12/31 08:58:59;;;;;;;2.13;1.63;;;11.50;99.90;;;;;;6211165;23;20166;-86
2022/12/31 09:01:30;;;;;;;2.27;2.10;;;11.60;99.90;;;;;;6211427;23;20180;-86
2022/12/31 09:04:09;;;;;;;2.43;2.13;;;11.70;99.90;;;;;;6184616;23;20193;-90
2022/12/31 09:06:43;;;;;;;2.50;1.07;;;11.80;99.90;;;;;;6211355;23;20146;-88
2022/12/31 09:09:33;;;;;;;1.40;1.00;;;11.90;99.90;;;;;;6184444;23;20142;-87
2022/12/31 09:12:27;;;;;;;2.07;1.57;;;11.90;99.90;;;;;;6184870;23;20174;-86
2022/12/31 09:15:08;;;;;;;1.23;0.73;;;12.00;99.90;;;;;;6184426;23;20165;-88
2022/12/31 09:17:40;;;;;;;1.33;1.23;;;12.00;99.90;;;;;;6184991;23;20145;-86
2022/12/31 09:20:12;;;;;;;3.40;2.23;;;12.10;99.90;;;;;;6185304;23;20292;-87
2022/12/31 09:22:38;;;;;;;4.10;3.43;;;12.10;99.90;;;;;;6186709;23;20346;-87
2022/12/31 09:25:04;;;;;;;2.53;2.33;;;12.20;99.90;;;;;;6184871;23;20610;-86
2022/12/31 09:27:44;;;;;;;0.87;0.87;;;12.30;99.90;;;;;;6184445;23;20158;-88
2022/12/31 09:30:12;;;;;;;1.10;0.57;;;12.40;99.90;;;;;;6183978;23;20168;-86
2022/12/31 09:32:59;;;;;;;0.70;0.70;;;12.50;99.90;;;;;;6184228;23;20177;-88
2022/12/31 09:35:32;;;;;;;3.53;0.77;;;12.60;99.90;;;;;;6183661;23;20177;-84
2022/12/31 09:38:09;;;;;;;1.00;0.87;;;12.70;99.90;;;;;;6184676;23;20722;-87
2022/12/31 09:41:15;;;;;;;1.27;0.73;;;12.70;99.90;;;;;;6211088;23;20667;-86
2022/12/31 09:43:53;;;;;;;1.90;1.80;;;12.70;99.90;;;;;;6184387;23;20153;-84
2022/12/31 09:46:25;;;;;;;1.23;0.93;;;12.70;99.90;;;;;;6184546;23;20632;-83
2022/12/31 09:49:09;;;;;;;5.77;0.37;;;12.80;99.90;;;;;;6210959;23;20253;-85
2022/12/31 09:51:37;;;;;;;3.80;0.50;;;12.90;99.90;;;;;;6210269;23;20585;-84
2022/12/31 09:54:22;;;;;;;0.40;0.40;;;12.90;99.90;;;;;;6211257;23;20168;-86
2022/12/31 09:57:06;;;;;;;7.10;1.10;;;13.00;99.90;;;;;;6185135;23;20150;-88
2022/12/31 10:00:02;;;;;;;1.07;0.80;;;13.00;99.90;;;;;;6184068;23;20154;-88
2022/12/31 10:02:58;;;;;;;0.40;0.40;;;13.00;99.90;;;;;;6167090;23;20158;-88
2022/12/31 10:05:42;;;;;;;1.53;0.50;;;13.20;99.90;;;;;;6211066;23;20169;-88
2022/12/31 10:08:35;;;;;;;5.57;1.13;;;13.20;99.90;;;;;;6184713;23;20577;-84
2022/12/31 10:11:13;;;;;;;3.70;1.13;;;13.30;99.90;;;;;;6211005;23;20174;-91
2022/12/31 10:14:07;;;;;;;7.30;0.90;;;13.30;99.90;;;;;;6184747;23;20146;-85
2022/12/31 10:16:51;;;;;;;4.53;3.17;;;13.40;99.90;;;;;;6210352;23;20196;-90
2022/12/31 10:19:35;;;;;;;2.67;1.53;;;13.50;99.90;;;;;;6182990;23;20252;-89
2022/12/31 10:22:46;;;;;;;1.97;1.50;;;13.50;99.90;;;;;;6183180;23;20674;-88
2022/12/31 10:25:39;;;;;;;1.60;1.20;;;13.50;99.90;;;;;;6209399;23;20164;-88
2022/12/31 10:28:25;;;;;;;1.80;0.80;;;13.40;99.90;;;;;;6183571;23;20154;-86
2022/12/31 10:31:08;;;;;;;5.10;1.33;;;13.50;99.90;;;;;;6209787;23;20178;-87
2022/12/31 10:33:42;;;;;;;3.27;1.47;;;13.50;99.90;;;;;;6183927;23;20605;-89
2022/12/31 10:36:14;;;;;;;7.43;1.23;;;13.60;99.90;;;;;;6184266;23;20240;-85
2022/12/31 10:38:58;;;;;;;0.73;0.73;;;13.60;99.90;;;;;;6210509;23;20239;-87
2022/12/31 10:41:41;;;;;;;7.53;1.30;;;13.70;99.90;;;;;;6183197;23;20154;-87
2022/12/31 10:44:44;;;;;;;0.80;0.70;;;13.70;99.90;;;;;;6209535;23;20154;-89
2022/12/31 10:47:37;;;;;;;1.17;0.43;;;13.70;99.90;;;;;;6184229;23;20146;-85
2022/12/31 10:50:22;;;;;;;3.23;1.30;;;13.80;99.90;;;;;;6210377;23;20708;-87
2022/12/31 10:53:03;;;;;;;1.13;1.10;;;13.80;99.90;;;;;;6184245;23;20173;-85
2022/12/31 10:55:56;;;;;;;6.60;1.13;;;13.90;99.90;;;;;;6211058;23;20146;-87
2022/12/31 10:58:47;;;;;;;2.77;0.70;;;14.00;99.90;;;;;;6184470;23;20169;-86
2022/12/31 11:01:27;;;;;;;1.03;0.93;;;14.10;99.90;;;;;;6209586;23;20216;-85
2022/12/31 11:04:23;;;;;;;4.37;2.73;;;14.10;99.90;;;;;;6185494;23;20509;-86
2022/12/31 11:07:39;;;;;;;6.70;1.23;;;14.20;99.90;;;;;;6211126;23;20142;-85
2022/12/31 11:10:42;;;;;;;0.83;0.83;;;14.10;99.90;;;;;;6159278;23;20154;-86
2022/12/31 11:13:45;;;;;;;5.83;1.50;;;14.00;99.90;;;;;;6184512;23;20173;-87
2022/12/31 11:16:31;;;;;;;6.60;2.97;;;14.00;99.90;;;;;;6211401;23;20150;-85
2022/12/31 11:19:02;;;;;;;1.40;1.23;;;13.90;99.90;;;;;;6212239;23;20146;-86
2022/12/31 11:22:07;;;;;;;6.13;0.93;;;13.90;99.90;;;;;;6185657;23;20151;-86
2022/12/31 11:25:11;;;;;;;2.40;1.07;;;13.90;99.90;;;;;;6104972;23;20543;-89
2022/12/31 11:27:52;;;;;;;3.90;1.30;;;13.80;99.90;;;;;;6185741;23;20176;-91
2022/12/31 11:30:28;;;;;;;1.07;1.00;;;13.80;99.90;;;;;;6212172;23;20158;-86
2022/12/31 11:33:15;;;;;;;9.97;1.03;;;13.80;99.90;;;;;;6185581;23;20146;-88
2022/12/31 11:35:54;;;;;;;7.50;1.87;;;13.70;99.90;;;;;;6212766;23;20146;-88
2022/12/31 11:38:36;;;;;;;7.77;0.70;;;13.70;99.90;;;;;;6185791;23;20243;-87
2022/12/31 11:41:36;;;;;;;0.73;0.73;;;13.70;99.90;;;;;;6185982;23;20201;-89
2022/12/31 11:44:24;;;;;;;2.23;0.53;;;13.80;99.90;;;;;;6186155;23;20174;-87
2022/12/31 11:47:14;;;;;;;1.30;0.97;;;13.80;99.90;;;;;;6211906;23;20603;-87
2022/12/31 11:50:16;;;;;;;1.60;0.97;;;13.90;99.90;;;;;;6211262;23;20135;-87
2022/12/31 11:53:05;;;;;;;4.73;2.17;;;13.90;99.90;;;;;;6183444;23;20190;-86
2022/12/31 11:55:41;;;;;;;6.07;1.57;;;13.90;99.90;;;;;;6184116;23;20150;-86
2022/12/31 11:58:13;;;;;;;1.00;0.53;;;13.90;99.90;;;;;;6183715;23;20590;-87
2022/12/31 12:00:47;;;;;;;5.87;3.27;;;13.90;99.90;;;;;;6183864;23;20237;-87
2022/12/31 12:03:23;;;;;;;4.03;1.40;;;14.00;99.90;;;;;;6184906;23;20158;-86
2022/12/31 12:05:49;;;;;;;4.13;2.63;;;14.00;99.90;;;;;;6184084;23;20146;-87
2022/12/31 12:08:15;;;;;;;2.40;0.67;;;14.00;99.90;;;;;;6135817;23;20208;-90
2022/12/31 12:10:46;;;;;;;3.50;2.33;;;13.90;99.90;;;;;;6184007;23;20182;-89
2022/12/31 12:13:19;;;;;;;3.03;1.30;;;13.90;99.90;;;;;;6184047;23;20150;-85
2022/12/31 12:15:51;;;;;;;6.90;2.13;;;13.90;99.90;;;;;;6184686;23;20143;-86
2022/12/31 12:18:34;;;;;;;8.87;1.07;;;13.90;99.90;;;;;;6184678;23;20200;-87
2022/12/31 12:21:05;;;;;;;0.67;0.67;;;13.90;99.90;;;;;;6210114;23;20146;-86
2022/12/31 12:23:31;;;;;;;2.73;1.23;;;13.90;99.90;;;;;;6210272;23;20146;-89
2022/12/31 12:25:58;;;;;;;4.03;2.73;;;13.80;99.90;;;;;;6133446;23;20162;-92
2022/12/31 12:28:26;;;;;;;1.73;1.63;;;13.80;99.90;;;;;;6157696;23;20158;-84
2022/12/31 12:30:59;;;;;;;2.47;2.27;;;13.80;99.90;;;;;;6181522;23;20192;-86
2022/12/31 12:33:25;;;;;;;2.43;2.23;;;13.80;99.90;;;;;;6182550;23;20220;-86
2022/12/31 12:35:51;;;;;;;0.90;0.77;;;13.70;99.90;;;;;;6181757;23;20163;-85
2022/12/31 12:38:20;;;;;;;5.73;2.43;;;13.70;99.90;;;;;;6157629;23;20166;-87
2022/12/31 12:41:01;;;;;;;1.73;0.80;;;13.70;99.90;;;;;;6208302;23;20610;-83
2022/12/31 12:43:30;;;;;;;7.43;2.47;;;13.70;99.90;;;;;;6208993;23;20734;-87
2022/12/31 12:46:00;;;;;;;4.97;1.43;;;13.70;99.90;;;;;;6184052;23;20178;-86
2022/12/31 12:48:48;;;;;;;3.00;1.90;;;13.70;99.90;;;;;;6184380;23;20153;-84
2022/12/31 12:51:30;;;;;;;4.97;2.13;;;13.70;99.90;;;;;;6210751;23;20184;-85
2022/12/31 12:54:34;;;;;;;1.30;0.80;;;13.70;99.90;;;;;;6182598;23;20174;-85
2022/12/31 12:57:09;;;;;;;3.33;2.20;;;13.70;99.90;;;;;;6183879;23;20180;-86
2022/12/31 12:59:38;;;;;;;2.70;1.00;;;13.70;99.90;;;;;;6209051;23;20158;-84
2022/12/31 13:02:21;;;;;;;5.97;1.43;;;13.70;99.90;;;;;;6181544;23;20183;-85
2022/12/31 13:05:16;;;;;;;1.60;1.47;;;13.70;99.90;;;;;;6208677;23;20229;-85
2022/12/31 13:08:04;;;;;;;3.30;1.17;;;13.70;99.90;;;;;;6208709;23;20172;-84
2022/12/31 13:10:42;;;;;;;4.97;2.67;;;13.70;99.90;;;;;;6181840;23;20159;-85
2022/12/31 13:13:10;;;;;;;1.30;0.77;;;13.70;99.90;;;;;;6208315;23;20162;-88
2022/12/31 13:16:00;;;;;;;8.27;1.80;;;13.70;99.90;;;;;;6181785;23;20158;-85
2022/12/31 13:18:32;;;;;;;0.53;0.53;;;13.70;99.90;;;;;;6181692;23;20237;-86
2022/12/31 13:21:07;;;;;;;6.70;1.53;;;13.70;99.90;;;;;;6208616;23;20162;-84
2022/12/31 13:23:50;;;;;;;7.67;2.30;;;13.70;99.90;;;;;;6183510;23;20153;-86
2022/12/31 13:26:30;;;;;;;7.03;3.97;;;13.70;99.90;;;;;;6183485;23;20147;-84
2022/12/31 13:29:00;;;;;;;1.20;0.67;;;13.70;99.90;;;;;;6209943;23;20149;-85
2022/12/31 13:31:32;;;;;;;9.03;1.33;;;13.60;99.90;;;;;;6183443;23;20236;-84
2022/12/31 13:34:17;;;;;;;1.00;0.93;;;13.60;99.90;;;;;;6209436;23;20386;-83
2022/12/31 13:36:46;;;;;;;11.10;2.90;;;13.60;99.90;;;;;;6183986;23;20166;-84
2022/12/31 13:39:25;;;;;;;7.00;0.73;;;13.50;99.90;;;;;;6183575;23;20609;-84
2022/12/31 13:42:08;;;;;;;1.80;1.03;;;13.40;99.90;;;;;;6209524;23;20146;-85